createdAt,value
2022-09-24T00:02:27.365Z,9.05
2022-09-24T00:04:58.162Z,8.74
2022-09-24T00:07:26.027Z,8.42
2022-09-24T00:09:54.071Z,8.42
2022-09-24T00:12:22.318Z,8.91
2022-09-24T00:14:56.808Z,8.85
2022-09-24T00:17:24.998Z,8.41
2022-09-24T00:19:52.992Z,8.01
2022-09-24T00:22:23.211Z,8.27
2022-09-24T00:25:09.964Z,8.93
2022-09-24T00:27:37.968Z,8.60
2022-09-24T00:30:07.006Z,8.37
2022-09-24T00:32:35.117Z,8.87
2022-09-24T00:35:07.484Z,8.82
2022-09-24T00:37:41.441Z,8.86
2022-09-24T00:40:10.031Z,8.86
2022-09-24T00:42:38.262Z,8.53
2022-09-24T00:45:07.034Z,8.97
2022-09-24T00:47:39.447Z,8.41
2022-09-24T00:50:32.704Z,7.89
2022-09-24T00:53:00.573Z,8.17
2022-09-24T00:55:29.343Z,8.28
2022-09-24T00:57:59.574Z,8.13
2022-09-24T01:00:31.341Z,8.59
2022-09-24T01:03:06.505Z,8.34
2022-09-24T01:05:37.253Z,8.44
2022-09-24T01:08:12.939Z,8.37
2022-09-24T01:10:59.133Z,8.99
2022-09-24T01:13:55.963Z,8.87
2022-09-24T01:16:40.346Z,8.65
2022-09-24T01:19:15.188Z,8.27
2022-09-24T01:21:48.111Z,8.31
2022-09-24T01:24:42.696Z,8.30
2022-09-24T01:27:33.505Z,8.25
2022-09-24T01:30:09.406Z,8.15
2022-09-24T01:32:58.827Z,8.34
2022-09-24T01:35:32.719Z,8.39
2022-09-24T01:38:03.501Z,8.08
2022-09-24T01:40:32.415Z,7.68
2022-09-24T01:43:02.836Z,8.13
2022-09-24T01:45:33.866Z,7.75
2022-09-24T01:48:13.365Z,7.42
2022-09-24T01:50:46.212Z,8.04
2022-09-24T01:53:24.499Z,8.28
2022-09-24T01:55:59.817Z,8.06
2022-09-24T01:58:39.305Z,8.83
2022-09-24T02:01:11.293Z,8.77
2022-09-24T02:03:44.919Z,7.76
2022-09-24T02:06:16.434Z,7.78
2022-09-24T02:08:47.696Z,7.83
2022-09-24T02:11:18.409Z,8.75
2022-09-24T02:14:09.904Z,8.42
2022-09-24T02:16:49.465Z,8.89
2022-09-24T02:19:20.391Z,8.78
2022-09-24T02:21:48.840Z,8.53
2022-09-24T02:24:21.281Z,8.79
2022-09-24T02:26:49.192Z,9.01
2022-09-24T02:29:18.710Z,8.94
2022-09-24T02:31:51.368Z,8.84
2022-09-24T02:34:25.732Z,8.88
2022-09-24T02:37:14.497Z,8.89
2022-09-24T02:39:51.486Z,7.86
2022-09-24T02:42:22.774Z,8.67
2022-09-24T02:44:52.444Z,8.95
2022-09-24T02:47:20.284Z,7.52
2022-09-24T02:49:50.631Z,7.05
2022-09-24T02:52:19.311Z,7.18
2022-09-24T02:54:56.545Z,6.96
2022-09-24T02:57:24.861Z,7.57
2022-09-24T02:59:52.776Z,8.08
2022-09-24T03:02:21.593Z,7.81
2022-09-24T03:04:50.505Z,7.61
2022-09-24T03:07:18.431Z,7.86
2022-09-24T03:09:51.323Z,7.44
2022-09-24T03:12:19.710Z,7.02
2022-09-24T03:14:47.557Z,7.21
2022-09-24T03:17:15.325Z,7.93
2022-09-24T03:19:43.510Z,8.34
2022-09-24T03:22:11.278Z,8.16
2022-09-24T03:24:39.041Z,8.04
2022-09-24T03:27:07.001Z,7.41
2022-09-24T03:29:56.245Z,7.98
2022-09-24T03:32:24.892Z,8.50
2022-09-24T03:34:52.829Z,7.73
2022-09-24T03:37:20.658Z,7.85
2022-09-24T03:39:48.886Z,8.13
2022-09-24T03:42:16.736Z,8.22
2022-09-24T03:44:44.839Z,8.19
2022-09-24T03:47:13.086Z,8.48
2022-09-24T03:49:40.756Z,8.60
2022-09-24T03:52:08.685Z,7.60
2022-09-24T03:54:37.609Z,8.25
2022-09-24T03:57:15.186Z,8.53
2022-09-24T03:59:46.046Z,7.03
2022-09-24T04:02:14.108Z,7.04
2022-09-24T04:04:47.694Z,7.98
2022-09-24T04:07:15.800Z,8.44
2022-09-24T04:09:44.428Z,7.22
2022-09-24T04:12:13.577Z,7.96
2022-09-24T04:14:41.475Z,8.10
2022-09-24T04:17:10.694Z,8.02
2022-09-24T04:19:41.860Z,7.12
2022-09-24T04:22:12.692Z,7.50
2022-09-24T04:24:41.255Z,8.03
2022-09-24T04:27:09.287Z,8.17
2022-09-24T04:29:37.942Z,7.29
2022-09-24T04:32:05.911Z,7.83
2022-09-24T04:34:36.298Z,7.78
2022-09-24T04:37:05.835Z,6.90
2022-09-24T04:39:33.328Z,7.47
2022-09-24T04:42:00.966Z,8.14
2022-09-24T04:44:30.505Z,8.13
2022-09-24T04:47:02.603Z,7.01
2022-09-24T04:49:34.474Z,7.95
2022-09-24T04:52:05.451Z,7.83
2022-09-24T04:54:33.930Z,8.19
2022-09-24T04:57:01.922Z,8.01
2022-09-24T04:59:29.696Z,8.24
2022-09-24T05:01:57.829Z,8.48
2022-09-24T05:04:31.352Z,8.37
2022-09-24T05:06:59.504Z,8.86
2022-09-24T05:09:36.803Z,8.78
2022-09-24T05:12:05.911Z,8.94
2022-09-24T05:14:34.167Z,8.53
2022-09-24T05:17:04.448Z,7.63
2022-09-24T05:19:32.870Z,6.92
2022-09-24T05:22:01.120Z,8.06
2022-09-24T05:24:29.395Z,8.38
2022-09-24T05:27:09.870Z,8.84
2022-09-24T05:29:43.454Z,8.74
2022-09-24T05:32:15.535Z,8.43
2022-09-24T05:34:44.276Z,8.73
2022-09-24T05:37:14.167Z,8.09
2022-09-24T05:39:41.976Z,8.69
2022-09-24T05:42:14.564Z,9.15
2022-09-24T05:44:49.827Z,9.33
2022-09-24T05:47:19.878Z,9.07
2022-09-24T05:49:53.293Z,9.34
2022-09-24T05:52:21.116Z,9.83
2022-09-24T05:54:49.366Z,10.01
2022-09-24T05:57:17.682Z,10.19
2022-09-24T05:59:45.758Z,10.28
2022-09-24T06:02:14.802Z,10.41
2022-09-24T06:04:43.533Z,10.80
2022-09-24T06:07:11.698Z,10.98
2022-09-24T06:09:39.645Z,10.72
2022-09-24T06:12:11.237Z,11.17
2022-09-24T06:14:39.418Z,11.29
2022-09-24T06:17:07.518Z,11.06
2022-09-24T06:19:36.051Z,10.94
2022-09-24T06:22:03.854Z,11.25
2022-09-24T06:24:34.774Z,10.81
2022-09-24T06:27:02.644Z,10.89
2022-09-24T06:29:34.125Z,10.29
2022-09-24T06:32:04.511Z,10.99
2022-09-24T06:34:36.444Z,11.22
2022-09-24T06:37:05.473Z,11.41
2022-09-24T06:39:33.643Z,11.74
2022-09-24T06:42:01.836Z,11.85
2022-09-24T06:44:35.534Z,11.98
2022-09-24T06:47:03.778Z,12.07
2022-09-24T06:49:34.197Z,12.12
2022-09-24T06:52:02.710Z,12.47
2022-09-24T06:54:30.450Z,12.55
2022-09-24T06:56:58.536Z,12.63
2022-09-24T06:59:26.265Z,12.60
2022-09-24T07:01:54.701Z,12.68
2022-09-24T07:04:23.595Z,12.56
2022-09-24T07:07:10.170Z,12.70
2022-09-24T07:09:41.773Z,12.88
2022-09-24T07:12:09.642Z,12.93
2022-09-24T07:14:37.378Z,12.99
2022-09-24T07:17:07.194Z,13.16
2022-09-24T07:19:35.604Z,13.29
2022-09-24T07:22:09.006Z,13.40
2022-09-24T07:24:42.958Z,13.35
2022-09-24T07:27:12.783Z,13.45
2022-09-24T07:29:52.762Z,13.54
2022-09-24T07:32:20.791Z,13.69
2022-09-24T07:34:56.551Z,13.78
2022-09-24T07:37:28.709Z,13.86
2022-09-24T07:40:03.921Z,13.89
2022-09-24T07:42:54.809Z,13.97
2022-09-24T07:45:29.963Z,14.02
2022-09-24T07:48:02.165Z,14.21
2022-09-24T07:50:32.556Z,14.27
2022-09-24T07:53:00.795Z,14.18
2022-09-24T07:55:41.345Z,14.31
2022-09-24T07:58:14.036Z,14.44
2022-09-24T08:00:43.373Z,14.59
2022-09-24T08:03:15.163Z,14.76
2022-09-24T08:05:49.599Z,14.58
2022-09-24T08:08:25.889Z,14.83
2022-09-24T08:11:04.165Z,14.88
2022-09-24T08:13:39.503Z,14.91
2022-09-24T08:16:27.236Z,14.73
2022-09-24T08:18:57.453Z,14.97
2022-09-24T08:21:34.753Z,15.21
2022-09-24T08:24:33.269Z,15.26
2022-09-24T08:27:03.751Z,15.25
2022-09-24T08:29:42.220Z,15.60
2022-09-24T08:32:17.823Z,15.54
2022-09-24T08:35:03.985Z,15.80
2022-09-24T08:37:33.432Z,15.70
2022-09-24T08:40:08.390Z,15.71
2022-09-24T08:42:39.755Z,15.77
2022-09-24T08:45:31.820Z,15.97
2022-09-24T08:48:05.819Z,16.05
2022-09-24T08:50:40.537Z,16.10
2022-09-24T08:53:24.939Z,16.08
2022-09-24T08:56:02.474Z,15.89
2022-09-24T08:58:44.318Z,16.15
2022-09-24T09:01:34.836Z,16.28
2022-09-24T09:04:24.058Z,16.56
2022-09-24T09:07:07.199Z,16.41
2022-09-24T09:10:36.045Z,16.37
2022-09-24T09:13:25.970Z,16.51
2022-09-24T09:16:29.557Z,16.58
2022-09-24T09:19:07.047Z,16.68
2022-09-24T09:21:59.621Z,16.68
2022-09-24T09:24:50.557Z,16.84
2022-09-24T09:27:28.028Z,17.00
2022-09-24T09:30:14.155Z,16.86
2022-09-24T09:32:56.669Z,17.00
2022-09-24T09:35:54.940Z,16.93
2022-09-24T09:38:53.908Z,16.94
2022-09-24T09:41:50.415Z,17.19
2022-09-24T09:44:29.260Z,17.33
2022-09-24T09:47:49.182Z,17.38
2022-09-24T09:50:41.081Z,17.21
2022-09-24T09:53:43.826Z,17.58
2022-09-24T09:56:19.498Z,17.59
2022-09-24T09:58:56.780Z,17.81
2022-09-24T10:01:33.332Z,17.92
2022-09-24T10:04:05.850Z,18.04
2022-09-24T10:06:44.417Z,18.21
2022-09-24T10:09:21.148Z,18.21
2022-09-24T10:11:49.337Z,18.38
2022-09-24T10:14:22.280Z,18.31
2022-09-24T10:16:54.997Z,18.37
2022-09-24T10:19:28.178Z,18.35
2022-09-24T10:22:00.280Z,18.55
2022-09-24T10:24:35.616Z,18.54
2022-09-24T10:27:15.167Z,18.81
2022-09-24T10:30:02.903Z,18.61
2022-09-24T10:32:30.983Z,18.58
2022-09-24T10:35:15.519Z,18.72
2022-09-24T10:37:54.548Z,18.76
2022-09-24T10:40:31.564Z,18.77
2022-09-24T10:43:06.694Z,18.98
2022-09-24T10:45:59.748Z,18.77
2022-09-24T10:48:34.163Z,18.79
2022-09-24T10:51:26.574Z,18.87
2022-09-24T10:54:18.783Z,18.98
2022-09-24T10:56:55.874Z,19.01
2022-09-24T10:59:26.944Z,18.84
2022-09-24T11:02:16.584Z,19.10
2022-09-24T11:05:18.625Z,19.18
2022-09-24T11:08:19.442Z,19.19
2022-09-24T11:10:53.453Z,19.18
2022-09-24T11:13:30.964Z,18.87
2022-09-24T11:16:15.005Z,18.99
2022-09-24T11:19:05.310Z,19.45
2022-09-24T11:22:14.639Z,19.31
2022-09-24T11:24:49.017Z,19.23
2022-09-24T11:27:35.516Z,19.37
2022-09-24T11:30:14.497Z,19.35
2022-09-24T11:33:10.311Z,19.56
2022-09-24T11:36:05.806Z,19.71
2022-09-24T11:38:51.969Z,19.55
2022-09-24T11:41:56.874Z,19.49
2022-09-24T11:45:01.793Z,19.87
2022-09-24T11:47:45.711Z,19.84
2022-09-24T11:50:24.803Z,19.87
2022-09-24T11:53:09.204Z,20.25
2022-09-24T11:55:44.441Z,20.24
2022-09-24T11:58:14.580Z,20.28
2022-09-24T12:00:50.594Z,20.14
2022-09-24T12:03:58.418Z,20.22
2022-09-24T12:06:54.402Z,20.03
2022-09-24T12:09:25.517Z,20.11
2022-09-24T12:12:16.301Z,20.25
2022-09-24T12:14:49.394Z,20.37
2022-09-24T12:17:22.489Z,20.16
2022-09-24T12:20:02.760Z,20.18
2022-09-24T12:22:31.667Z,20.31
2022-09-24T12:25:00.752Z,20.46
2022-09-24T12:27:36.678Z,20.05
2022-09-24T12:30:29.432Z,19.94
2022-09-24T12:33:23.772Z,19.99
2022-09-24T12:36:31.740Z,20.54
2022-09-24T12:39:05.781Z,20.12
2022-09-24T12:41:46.976Z,20.21
2022-09-24T12:44:26.695Z,20.07
2022-09-24T12:46:58.841Z,20.36
2022-09-24T12:49:39.583Z,20.41
2022-09-24T12:52:32.689Z,20.36
2022-09-24T12:55:06.343Z,19.94
2022-09-24T12:57:42.657Z,20.05
2022-09-24T13:00:32.661Z,20.10
2022-09-24T13:03:01.667Z,20.25
2022-09-24T13:05:36.558Z,20.02
2022-09-24T13:08:20.177Z,20.43
2022-09-24T13:11:05.835Z,20.35
2022-09-24T13:13:45.109Z,20.24
2022-09-24T13:16:24.821Z,20.21
2022-09-24T13:19:00.807Z,20.49
2022-09-24T13:21:32.689Z,20.34
2022-09-24T13:24:24.497Z,20.51
2022-09-24T13:27:26.099Z,20.44
2022-09-24T13:30:06.136Z,20.56
2022-09-24T13:32:37.535Z,20.65
2022-09-24T13:35:19.499Z,20.75
2022-09-24T13:38:09.134Z,20.78
2022-09-24T13:40:41.063Z,20.94
2022-09-24T13:43:21.015Z,20.95
2022-09-24T13:45:49.662Z,20.51
2022-09-24T13:48:38.606Z,20.80
2022-09-24T13:51:13.134Z,20.91
2022-09-24T13:53:48.660Z,20.59
2022-09-24T13:56:21.388Z,20.40
2022-09-24T13:58:51.458Z,20.43
2022-09-24T14:01:24.707Z,20.43
2022-09-24T14:03:58.932Z,20.58
2022-09-24T14:06:36.717Z,20.33
2022-09-24T14:09:25.159Z,20.47
2022-09-24T14:12:15.359Z,20.41
2022-09-24T14:14:51.707Z,20.54
2022-09-24T14:17:22.168Z,20.25
2022-09-24T14:20:01.338Z,20.42
2022-09-24T14:22:37.079Z,20.38
2022-09-24T14:25:20.772Z,20.17
2022-09-24T14:27:56.234Z,20.35
2022-09-24T14:30:29.375Z,20.24
2022-09-24T14:33:08.430Z,20.28
2022-09-24T14:35:51.158Z,20.29
2022-09-24T14:38:36.931Z,20.28
2022-09-24T14:41:19.955Z,20.33
2022-09-24T14:44:00.871Z,20.32
2022-09-24T14:46:35.660Z,20.26
2022-09-24T14:49:23.715Z,20.16
2022-09-24T14:52:04.400Z,20.23
2022-09-24T14:54:45.636Z,20.21
2022-09-24T14:57:19.786Z,20.18
2022-09-24T14:59:47.965Z,20.13
2022-09-24T15:02:30.363Z,20.13
2022-09-24T15:05:05.606Z,20.14
2022-09-24T15:07:35.473Z,20.06
2022-09-24T15:10:05.536Z,20.10
2022-09-24T15:12:42.257Z,19.95
2022-09-24T15:15:17.504Z,20.01
2022-09-24T15:17:48.901Z,19.94
2022-09-24T15:20:19.729Z,19.99
2022-09-24T15:22:56.760Z,19.86
2022-09-24T15:25:25.400Z,19.84
2022-09-24T15:27:55.027Z,19.91
2022-09-24T15:30:25.938Z,19.88
2022-09-24T15:33:02.767Z,19.75
2022-09-24T15:35:31.213Z,19.69
2022-09-24T15:37:59.274Z,19.60
2022-09-24T15:40:30.866Z,19.78
2022-09-24T15:42:59.358Z,19.71
2022-09-24T15:45:27.076Z,19.64
2022-09-24T15:47:55.475Z,19.64
2022-09-24T15:50:24.661Z,19.68
2022-09-24T15:52:59.334Z,19.71
2022-09-24T15:55:28.699Z,19.66
2022-09-24T15:57:57.006Z,19.64
2022-09-24T16:00:25.737Z,19.55
2022-09-24T16:02:56.206Z,19.54
2022-09-24T16:05:27.705Z,19.59
2022-09-24T16:07:57.504Z,19.33
2022-09-24T16:10:25.645Z,19.54
2022-09-24T16:12:57.746Z,19.47
2022-09-24T16:15:27.888Z,19.41
2022-09-24T16:17:55.948Z,19.48
2022-09-24T16:20:25.499Z,19.32
2022-09-24T16:22:53.598Z,19.37
2022-09-24T16:25:21.375Z,19.41
2022-09-24T16:27:51.118Z,19.23
2022-09-24T16:30:20.317Z,19.00
2022-09-24T16:32:48.666Z,19.07
2022-09-24T16:35:16.735Z,19.01
2022-09-24T16:37:45.213Z,19.07
2022-09-24T16:40:16.654Z,18.97
2022-09-24T16:42:44.975Z,18.98
2022-09-24T16:45:13.280Z,18.87
2022-09-24T16:47:55.713Z,18.67
2022-09-24T16:50:24.236Z,18.62
2022-09-24T16:52:55.058Z,18.73
2022-09-24T16:55:26.388Z,18.46
2022-09-24T16:57:54.342Z,18.51
2022-09-24T17:00:22.407Z,18.06
2022-09-24T17:02:52.567Z,18.37
2022-09-24T17:05:21.283Z,18.25
2022-09-24T17:07:49.980Z,18.40
2022-09-24T17:10:18.475Z,18.32
2022-09-24T17:12:50.269Z,18.06
2022-09-24T17:15:20.880Z,17.47
2022-09-24T17:17:51.194Z,17.66
2022-09-24T17:20:26.359Z,17.70
2022-09-24T17:22:56.101Z,17.99
2022-09-24T17:25:23.859Z,17.52
2022-09-24T17:27:55.266Z,17.68
2022-09-24T17:30:25.391Z,17.61
2022-09-24T17:32:53.969Z,17.76
2022-09-24T17:35:23.068Z,17.39
2022-09-24T17:37:55.300Z,17.67
2022-09-24T17:40:24.592Z,17.49
2022-09-24T17:42:54.293Z,17.40
2022-09-24T17:45:23.059Z,16.87
2022-09-24T17:47:58.044Z,16.77
2022-09-24T17:50:26.857Z,16.82
2022-09-24T17:53:04.201Z,16.73
2022-09-24T17:55:32.488Z,16.53
2022-09-24T17:58:00.784Z,16.70
2022-09-24T18:00:31.494Z,16.91
2022-09-24T18:02:59.738Z,16.22
2022-09-24T18:05:32.539Z,16.42
2022-09-24T18:08:01.230Z,16.54
2022-09-24T18:10:41.670Z,16.71
2022-09-24T18:13:10.080Z,16.84
2022-09-24T18:15:39.021Z,16.89
2022-09-24T18:18:22.782Z,16.60
2022-09-24T18:21:11.345Z,16.77
2022-09-24T18:23:48.124Z,16.37
2022-09-24T18:26:19.748Z,16.18
2022-09-24T18:29:04.022Z,16.29
2022-09-24T18:31:45.787Z,16.33
2022-09-24T18:34:16.099Z,16.11
2022-09-24T18:36:47.788Z,16.16
2022-09-24T18:39:23.745Z,16.32
2022-09-24T18:41:56.243Z,16.14
2022-09-24T18:44:25.411Z,16.08
2022-09-24T18:47:00.628Z,16.62
2022-09-24T18:49:33.814Z,16.55
2022-09-24T18:52:09.960Z,16.56
2022-09-24T18:54:51.387Z,16.66
2022-09-24T18:57:32.927Z,16.30
2022-09-24T19:00:30.946Z,16.39
2022-09-24T19:04:00.028Z,16.83
2022-09-24T19:07:09.653Z,16.73
2022-09-24T19:09:43.599Z,17.06
2022-09-24T19:12:33.169Z,16.85
2022-09-24T19:15:14.871Z,16.54
2022-09-24T19:17:53.907Z,16.32
2022-09-24T19:20:36.582Z,16.83
2022-09-24T19:23:21.829Z,16.85
2022-09-24T19:26:12.754Z,16.67
2022-09-24T19:29:03.243Z,16.53
2022-09-24T19:31:57.945Z,16.05
2022-09-24T19:37:31.462Z,16.65
2022-09-24T19:40:04.696Z,16.85
2022-09-24T19:42:51.108Z,16.09
2022-09-24T19:45:23.052Z,15.90
2022-09-24T19:47:59.795Z,15.54
2022-09-24T19:50:37.640Z,15.70
2022-09-24T19:53:18.601Z,15.71
2022-09-24T19:55:48.442Z,15.87
2022-09-24T19:58:25.838Z,16.31
2022-09-24T20:00:55.236Z,15.74
2022-09-24T20:03:26.258Z,16.02
2022-09-24T20:06:06.195Z,15.85
2022-09-24T20:08:48.065Z,16.07
2022-09-24T20:11:32.894Z,15.69
2022-09-24T20:14:06.255Z,16.13
2022-09-24T20:16:42.654Z,16.01
2022-09-24T20:19:15.617Z,16.02
2022-09-24T20:21:43.868Z,16.10
2022-09-24T20:24:15.288Z,16.30
2022-09-24T20:27:05.025Z,16.11
2022-09-24T20:29:34.034Z,15.40
2022-09-24T20:32:05.780Z,15.72
2022-09-24T20:34:36.319Z,15.51
2022-09-24T20:37:05.917Z,15.60
2022-09-24T20:39:35.393Z,14.60
2022-09-24T20:42:04.968Z,15.06
2022-09-24T20:44:38.303Z,15.56
2022-09-24T20:47:07.394Z,15.17
2022-09-24T20:49:36.707Z,14.99
2022-09-24T20:52:11.957Z,14.48
2022-09-24T20:54:40.276Z,14.56
2022-09-24T20:57:08.290Z,14.77
2022-09-24T20:59:36.438Z,14.69
2022-09-24T21:02:07.822Z,14.30
2022-09-24T21:04:36.241Z,15.08
2022-09-24T21:07:05.075Z,14.92
2022-09-24T21:09:33.219Z,14.46
2022-09-24T21:12:03.709Z,14.75
2022-09-24T21:14:35.771Z,14.87
2022-09-24T21:17:13.289Z,14.99
2022-09-24T21:19:41.605Z,14.67
2022-09-24T21:22:09.613Z,14.95
2022-09-24T21:24:43.128Z,14.44
2022-09-24T21:27:11.612Z,14.95
2022-09-24T21:29:40.009Z,15.33
2022-09-24T21:32:11.432Z,15.46
2022-09-24T21:34:42.276Z,15.59
2022-09-24T21:37:14.821Z,14.86
2022-09-24T21:39:45.084Z,15.23
2022-09-24T21:42:12.987Z,15.23
2022-09-24T21:44:48.338Z,15.40
2022-09-24T21:47:25.565Z,14.84
2022-09-24T21:49:53.707Z,15.30
2022-09-24T21:52:21.958Z,14.72
2022-09-24T21:54:49.696Z,15.27
2022-09-24T21:57:17.539Z,15.40
2022-09-24T22:00:02.722Z,15.63
2022-09-24T22:02:33.648Z,15.17
2022-09-24T22:05:01.862Z,14.60
2022-09-24T22:07:29.673Z,15.25
2022-09-24T22:10:02.744Z,15.27
2022-09-24T22:12:32.242Z,15.23
2022-09-24T22:15:02.981Z,15.41
2022-09-24T22:17:34.521Z,15.36
2022-09-24T22:20:03.012Z,15.44
2022-09-24T22:22:31.233Z,14.97
2022-09-24T22:24:58.950Z,15.19
2022-09-24T22:27:30.092Z,15.08
2022-09-24T22:30:04.279Z,14.99
2022-09-24T22:32:43.481Z,14.74
2022-09-24T22:35:33.207Z,14.98
2022-09-24T22:38:02.777Z,14.86
2022-09-24T22:40:39.301Z,14.53
2022-09-24T22:43:09.401Z,14.08
2022-09-24T22:45:38.641Z,14.32
2022-09-24T22:48:16.065Z,14.50
2022-09-24T22:50:44.515Z,14.48
2022-09-24T22:53:14.942Z,14.51
2022-09-24T22:55:50.499Z,14.05
2022-09-24T22:58:21.809Z,14.24
2022-09-24T23:00:52.749Z,14.16
2022-09-24T23:03:24.765Z,13.82
2022-09-24T23:05:53.480Z,13.86
2022-09-24T23:08:21.585Z,13.69
2022-09-24T23:10:51.578Z,13.57
2022-09-24T23:13:19.328Z,13.65
2022-09-24T23:15:50.703Z,13.87
2022-09-24T23:18:27.797Z,13.68
2022-09-24T23:21:18.399Z,13.97
2022-09-24T23:23:56.865Z,13.80
2022-09-24T23:26:31.787Z,13.62
2022-09-24T23:29:12.291Z,13.88
2022-09-24T23:31:43.681Z,13.41
2022-09-24T23:34:19.806Z,13.83
2022-09-24T23:36:51.037Z,13.06
2022-09-24T23:39:18.823Z,13.30
2022-09-24T23:41:46.518Z,13.36
2022-09-24T23:44:14.913Z,12.84
2022-09-24T23:46:45.822Z,13.60
2022-09-24T23:49:13.997Z,13.82
2022-09-24T23:51:47.447Z,13.55
2022-09-24T23:54:20.736Z,13.50
2022-09-24T23:56:49.424Z,13.83
2022-09-24T23:59:33.483Z,13.40
